sensor_id;sensor_type;location;lat;lon;timestamp;temperature;humidity
19972;DHT22;10147;16.402;102.848;2023-04-15T00:00:58;29.30;99.90
19972;DHT22;10147;16.402;102.848;2023-04-15T00:03:28;29.50;99.90
19972;DHT22;10147;16.402;102.848;2023-04-15T00:05:58;29.60;99.90
19972;DHT22;10147;16.402;102.848;2023-04-15T00:08:28;29.80;99.90
19972;DHT22;10147;16.402;102.848;2023-04-15T00:10:58;29.80;99.90
19972;DHT22;10147;16.402;102.848;2023-04-15T00:13:31;29.80;99.90
19972;DHT22;10147;16.402;102.848;2023-04-15T00:16:03;29.80;99.90
19972;DHT22;10147;16.402;102.848;2023-04-15T00:18:33;29.90;99.90
19972;DHT22;10147;16.402;102.848;2023-04-15T00:21:04;29.90;99.90
19972;DHT22;10147;16.402;102.848;2023-04-15T00:23:34;30.00;99.90
19972;DHT22;10147;16.402;102.848;2023-04-15T00:26:05;30.10;99.90
19972;DHT22;10147;16.402;102.848;2023-04-15T00:28:35;30.10;99.90
19972;DHT22;10147;16.402;102.848;2023-04-15T00:31:05;30.10;99.90
19972;DHT22;10147;16.402;102.848;2023-04-15T00:33:35;30.20;99.90
19972;DHT22;10147;16.402;102.848;2023-04-15T00:36:06;30.20;99.90
19972;DHT22;10147;16.402;102.848;2023-04-15T00:38:40;30.20;99.90
19972;DHT22;10147;16.402;102.848;2023-04-15T00:41:10;30.30;99.90
19972;DHT22;10147;16.402;102.848;2023-04-15T00:43:41;30.30;99.90
19972;DHT22;10147;16.402;102.848;2023-04-15T00:46:13;30.20;99.90
19972;DHT22;10147;16.402;102.848;2023-04-15T00:48:45;30.30;99.90
19972;DHT22;10147;16.402;102.848;2023-04-15T00:51:15;30.30;99.90
19972;DHT22;10147;16.402;102.848;2023-04-15T00:53:45;30.50;99.90
19972;DHT22;10147;16.402;102.848;2023-04-15T00:56:15;30.50;99.90
19972;DHT22;10147;16.402;102.848;2023-04-15T00:58:45;30.60;99.90
19972;DHT22;10147;16.402;102.848;2023-04-15T01:01:19;30.60;99.90
19972;DHT22;10147;16.402;102.848;2023-04-15T01:03:50;30.70;99.90
19972;DHT22;10147;16.402;102.848;2023-04-15T01:06:20;30.70;99.90
19972;DHT22;10147;16.402;102.848;2023-04-15T01:08:50;30.70;99.90
19972;DHT22;10147;16.402;102.848;2023-04-15T01:11:21;30.90;99.90
19972;DHT22;10147;16.402;102.848;2023-04-15T01:13:52;30.90;99.90
19972;DHT22;10147;16.402;102.848;2023-04-15T01:16:25;31.00;99.90
19972;DHT22;10147;16.402;102.848;2023-04-15T01:18:57;31.10;99.90
19972;DHT22;10147;16.402;102.848;2023-04-15T01:21:27;31.20;99.90
19972;DHT22;10147;16.402;102.848;2023-04-15T01:23:58;31.30;99.90
19972;DHT22;10147;16.402;102.848;2023-04-15T01:26:28;31.40;99.90
19972;DHT22;10147;16.402;102.848;2023-04-15T01:28:59;31.40;99.90
19972;DHT22;10147;16.402;102.848;2023-04-15T01:31:29;31.50;99.90
19972;DHT22;10147;16.402;102.848;2023-04-15T01:33:59;31.50;99.90
19972;DHT22;10147;16.402;102.848;2023-04-15T01:36:29;31.60;99.90
19972;DHT22;10147;16.402;102.848;2023-04-15T01:38:59;31.70;99.90
19972;DHT22;10147;16.402;102.848;2023-04-15T01:41:29;31.70;99.90
19972;DHT22;10147;16.402;102.848;2023-04-15T01:44:00;31.80;99.90
19972;DHT22;10147;16.402;102.848;2023-04-15T01:46:30;31.90;99.90
19972;DHT22;10147;16.402;102.848;2023-04-15T01:49:00;32.00;99.90
19972;DHT22;10147;16.402;102.848;2023-04-15T01:51:32;32.10;99.90
19972;DHT22;10147;16.402;102.848;2023-04-15T01:54:02;32.10;99.90
19972;DHT22;10147;16.402;102.848;2023-04-15T01:56:32;32.10;99.90
19972;DHT22;10147;16.402;102.848;2023-04-15T01:59:03;32.20;99.90
19972;DHT22;10147;16.402;102.848;2023-04-15T02:01:33;32.40;99.90
19972;DHT22;10147;16.402;102.848;2023-04-15T02:04:03;32.50;99.90
19972;DHT22;10147;16.402;102.848;2023-04-15T02:06:33;32.40;99.90
19972;DHT22;10147;16.402;102.848;2023-04-15T02:09:04;32.60;99.90
19972;DHT22;10147;16.402;102.848;2023-04-15T02:11:34;32.70;99.90
19972;DHT22;10147;16.402;102.848;2023-04-15T02:14:05;32.70;99.90
19972;DHT22;10147;16.402;102.848;2023-04-15T02:16:35;32.90;99.90
19972;DHT22;10147;16.402;102.848;2023-04-15T02:19:07;33.00;99.90
19972;DHT22;10147;16.402;102.848;2023-04-15T02:21:37;33.20;99.90
19972;DHT22;10147;16.402;102.848;2023-04-15T02:24:07;33.30;99.90
19972;DHT22;10147;16.402;102.848;2023-04-15T02:26:40;33.40;99.90
19972;DHT22;10147;16.402;102.848;2023-04-15T02:29:10;33.40;99.90
19972;DHT22;10147;16.402;102.848;2023-04-15T02:31:40;33.50;99.90
19972;DHT22;10147;16.402;102.848;2023-04-15T02:34:11;33.60;99.90
19972;DHT22;10147;16.402;102.848;2023-04-15T02:36:44;33.70;99.90
19972;DHT22;10147;16.402;102.848;2023-04-15T02:39:17;33.80;99.90
19972;DHT22;10147;16.402;102.848;2023-04-15T02:41:47;33.80;99.90
19972;DHT22;10147;16.402;102.848;2023-04-15T02:44:20;33.90;99.90
19972;DHT22;10147;16.402;102.848;2023-04-15T02:46:58;34.00;99.90
19972;DHT22;10147;16.402;102.848;2023-04-15T02:49:28;34.00;99.90
19972;DHT22;10147;16.402;102.848;2023-04-15T02:52:00;34.00;99.90
19972;DHT22;10147;16.402;102.848;2023-04-15T02:54:29;34.20;99.90
19972;DHT22;10147;16.402;102.848;2023-04-15T02:57:01;34.30;99.90
19972;DHT22;10147;16.402;102.848;2023-04-15T02:59:32;34.40;99.90
19972;DHT22;10147;16.402;102.848;2023-04-15T03:02:03;34.50;99.90
19972;DHT22;10147;16.402;102.848;2023-04-15T03:04:35;34.60;99.90
19972;DHT22;10147;16.402;102.848;2023-04-15T03:07:05;34.60;99.90
19972;DHT22;10147;16.402;102.848;2023-04-15T03:09:35;34.70;99.90
19972;DHT22;10147;16.402;102.848;2023-04-15T03:12:04;34.90;99.90
19972;DHT22;10147;16.402;102.848;2023-04-15T03:14:34;35.10;99.90
19972;DHT22;10147;16.402;102.848;2023-04-15T03:17:04;35.10;99.90
19972;DHT22;10147;16.402;102.848;2023-04-15T03:19:34;35.30;99.90
19972;DHT22;10147;16.402;102.848;2023-04-15T03:22:04;35.50;99.90
19972;DHT22;10147;16.402;102.848;2023-04-15T03:24:34;35.60;99.90
19972;DHT22;10147;16.402;102.848;2023-04-15T03:27:04;35.90;99.90
19972;DHT22;10147;16.402;102.848;2023-04-15T03:29:36;35.90;99.90
19972;DHT22;10147;16.402;102.848;2023-04-15T03:32:07;36.20;99.90
19972;DHT22;10147;16.402;102.848;2023-04-15T03:34:37;36.50;99.90
19972;DHT22;10147;16.402;102.848;2023-04-15T03:37:07;36.50;99.90
19972;DHT22;10147;16.402;102.848;2023-04-15T03:39:37;36.80;99.90
19972;DHT22;10147;16.402;102.848;2023-04-15T03:42:07;36.80;99.90
19972;DHT22;10147;16.402;102.848;2023-04-15T03:44:37;36.80;99.90
19972;DHT22;10147;16.402;102.848;2023-04-15T03:47:07;36.60;99.90
19972;DHT22;10147;16.402;102.848;2023-04-15T03:49:37;36.80;99.90
19972;DHT22;10147;16.402;102.848;2023-04-15T03:52:06;36.90;99.90
19972;DHT22;10147;16.402;102.848;2023-04-15T03:54:36;36.90;99.90
19972;DHT22;10147;16.402;102.848;2023-04-15T03:57:06;37.10;99.90
19972;DHT22;10147;16.402;102.848;2023-04-15T03:59:36;37.30;99.90
19972;DHT22;10147;16.402;102.848;2023-04-15T04:02:06;37.30;99.90
19972;DHT22;10147;16.402;102.848;2023-04-15T04:04:36;37.30;99.90
19972;DHT22;10147;16.402;102.848;2023-04-15T04:07:06;37.20;99.90
19972;DHT22;10147;16.402;102.848;2023-04-15T04:09:36;37.00;99.90
19972;DHT22;10147;16.402;102.848;2023-04-15T04:12:08;37.10;99.90
19972;DHT22;10147;16.402;102.848;2023-04-15T04:14:38;37.20;99.90
19972;DHT22;10147;16.402;102.848;2023-04-15T04:17:09;37.40;99.90
19972;DHT22;10147;16.402;102.848;2023-04-15T04:19:39;37.60;99.90
19972;DHT22;10147;16.402;102.848;2023-04-15T04:22:09;37.60;99.90
19972;DHT22;10147;16.402;102.848;2023-04-15T04:24:38;37.80;99.90
19972;DHT22;10147;16.402;102.848;2023-04-15T04:27:08;37.50;99.90
19972;DHT22;10147;16.402;102.848;2023-04-15T04:29:38;37.50;99.90
19972;DHT22;10147;16.402;102.848;2023-04-15T04:32:09;37.70;99.90
19972;DHT22;10147;16.402;102.848;2023-04-15T04:34:39;37.80;99.90
19972;DHT22;10147;16.402;102.848;2023-04-15T04:37:10;37.90;99.90
19972;DHT22;10147;16.402;102.848;2023-04-15T04:39:39;38.20;99.90
19972;DHT22;10147;16.402;102.848;2023-04-15T04:42:10;38.40;99.90
19972;DHT22;10147;16.402;102.848;2023-04-15T04:44:40;37.90;99.90
19972;DHT22;10147;16.402;102.848;2023-04-15T04:47:09;37.90;99.90
19972;DHT22;10147;16.402;102.848;2023-04-15T04:49:39;38.20;99.90
19972;DHT22;10147;16.402;102.848;2023-04-15T04:52:10;38.10;99.90
19972;DHT22;10147;16.402;102.848;2023-04-15T04:54:39;38.40;99.90
19972;DHT22;10147;16.402;102.848;2023-04-15T04:57:09;38.50;99.90
19972;DHT22;10147;16.402;102.848;2023-04-15T04:59:42;38.30;99.90
19972;DHT22;10147;16.402;102.848;2023-04-15T05:02:12;38.60;99.90
19972;DHT22;10147;16.402;102.848;2023-04-15T05:04:42;38.70;99.90
19972;DHT22;10147;16.402;102.848;2023-04-15T05:07:12;38.90;99.90
19972;DHT22;10147;16.402;102.848;2023-04-15T05:09:42;39.10;99.90
19972;DHT22;10147;16.402;102.848;2023-04-15T05:12:11;39.10;99.90
19972;DHT22;10147;16.402;102.848;2023-04-15T05:14:43;38.70;99.90
19972;DHT22;10147;16.402;102.848;2023-04-15T05:17:15;39.00;99.90
19972;DHT22;10147;16.402;102.848;2023-04-15T05:19:44;39.10;99.90
19972;DHT22;10147;16.402;102.848;2023-04-15T05:22:14;39.30;99.90
19972;DHT22;10147;16.402;102.848;2023-04-15T05:24:44;39.70;99.90
19972;DHT22;10147;16.402;102.848;2023-04-15T05:27:15;39.60;99.90
19972;DHT22;10147;16.402;102.848;2023-04-15T05:29:44;39.80;99.90
19972;DHT22;10147;16.402;102.848;2023-04-15T05:32:14;39.80;99.90
19972;DHT22;10147;16.402;102.848;2023-04-15T05:34:45;39.90;99.80
19972;DHT22;10147;16.402;102.848;2023-04-15T05:37:15;39.70;99.90
19972;DHT22;10147;16.402;102.848;2023-04-15T05:39:45;39.80;99.10
19972;DHT22;10147;16.402;102.848;2023-04-15T05:42:16;39.80;99.40
19972;DHT22;10147;16.402;102.848;2023-04-15T05:44:46;39.80;99.90
19972;DHT22;10147;16.402;102.848;2023-04-15T05:47:16;40.00;99.80
19972;DHT22;10147;16.402;102.848;2023-04-15T05:49:46;40.10;98.30
19972;DHT22;10147;16.402;102.848;2023-04-15T05:52:16;39.90;98.00
19972;DHT22;10147;16.402;102.848;2023-04-15T05:54:46;40.00;98.70
19972;DHT22;10147;16.402;102.848;2023-04-15T05:57:16;40.20;99.90
19972;DHT22;10147;16.402;102.848;2023-04-15T05:59:46;40.30;99.10
19972;DHT22;10147;16.402;102.848;2023-04-15T06:02:16;40.30;97.80
19972;DHT22;10147;16.402;102.848;2023-04-15T06:04:45;40.30;99.30
19972;DHT22;10147;16.402;102.848;2023-04-15T06:07:16;40.40;95.80
19972;DHT22;10147;16.402;102.848;2023-04-15T06:09:46;40.00;96.70
19972;DHT22;10147;16.402;102.848;2023-04-15T06:12:16;40.10;96.00
19972;DHT22;10147;16.402;102.848;2023-04-15T06:14:45;40.20;95.50
19972;DHT22;10147;16.402;102.848;2023-04-15T06:17:15;40.10;95.60
19972;DHT22;10147;16.402;102.848;2023-04-15T06:19:47;40.00;95.30
19972;DHT22;10147;16.402;102.848;2023-04-15T06:22:18;40.20;95.00
19972;DHT22;10147;16.402;102.848;2023-04-15T06:24:49;40.40;94.80
19972;DHT22;10147;16.402;102.848;2023-04-15T06:27:20;40.50;94.50
19972;DHT22;10147;16.402;102.848;2023-04-15T06:29:51;40.40;95.40
19972;DHT22;10147;16.402;102.848;2023-04-15T06:32:21;40.50;94.80
19972;DHT22;10147;16.402;102.848;2023-04-15T06:34:51;40.40;94.20
19972;DHT22;10147;16.402;102.848;2023-04-15T06:37:21;40.50;94.30
19972;DHT22;10147;16.402;102.848;2023-04-15T06:39:50;40.50;94.40
19972;DHT22;10147;16.402;102.848;2023-04-15T06:42:20;40.60;93.20
19972;DHT22;10147;16.402;102.848;2023-04-15T06:44:51;40.70;94.90
19972;DHT22;10147;16.402;102.848;2023-04-15T06:47:21;40.70;92.90
19972;DHT22;10147;16.402;102.848;2023-04-15T06:49:51;40.60;93.80
19972;DHT22;10147;16.402;102.848;2023-04-15T06:52:21;40.90;94.60
19972;DHT22;10147;16.402;102.848;2023-04-15T06:54:51;40.70;92.40
19972;DHT22;10147;16.402;102.848;2023-04-15T06:57:20;40.70;92.90
19972;DHT22;10147;16.402;102.848;2023-04-15T06:59:50;40.70;92.90
19972;DHT22;10147;16.402;102.848;2023-04-15T07:02:22;40.90;92.80
19972;DHT22;10147;16.402;102.848;2023-04-15T07:04:52;40.70;92.30
19972;DHT22;10147;16.402;102.848;2023-04-15T07:07:22;40.70;91.90
19972;DHT22;10147;16.402;102.848;2023-04-15T07:09:52;40.90;92.60
19972;DHT22;10147;16.402;102.848;2023-04-15T07:12:24;40.80;92.20
19972;DHT22;10147;16.402;102.848;2023-04-15T07:14:54;40.50;92.10
19972;DHT22;10147;16.402;102.848;2023-04-15T07:17:24;40.60;91.30
19972;DHT22;10147;16.402;102.848;2023-04-15T07:19:54;40.60;92.70
19972;DHT22;10147;16.402;102.848;2023-04-15T07:22:24;40.70;92.40
19972;DHT22;10147;16.402;102.848;2023-04-15T07:24:54;40.70;92.70
19972;DHT22;10147;16.402;102.848;2023-04-15T07:27:24;40.70;91.70
19972;DHT22;10147;16.402;102.848;2023-04-15T07:29:54;40.70;91.30
19972;DHT22;10147;16.402;102.848;2023-04-15T07:32:24;40.80;92.20
19972;DHT22;10147;16.402;102.848;2023-04-15T07:34:54;40.90;89.30
19972;DHT22;10147;16.402;102.848;2023-04-15T07:37:24;40.80;91.80
19972;DHT22;10147;16.402;102.848;2023-04-15T07:39:55;41.00;91.10
19972;DHT22;10147;16.402;102.848;2023-04-15T07:42:25;40.80;90.90
19972;DHT22;10147;16.402;102.848;2023-04-15T07:44:56;40.90;90.10
19972;DHT22;10147;16.402;102.848;2023-04-15T07:47:26;40.90;90.20
19972;DHT22;10147;16.402;102.848;2023-04-15T07:49:56;40.90;90.10
19972;DHT22;10147;16.402;102.848;2023-04-15T07:52:26;40.90;88.30
19972;DHT22;10147;16.402;102.848;2023-04-15T07:54:55;41.10;87.50
19972;DHT22;10147;16.402;102.848;2023-04-15T07:57:25;40.90;90.00
19972;DHT22;10147;16.402;102.848;2023-04-15T07:59:55;41.10;88.20
19972;DHT22;10147;16.402;102.848;2023-04-15T08:02:26;41.20;87.40
19972;DHT22;10147;16.402;102.848;2023-04-15T08:04:56;41.30;87.40
19972;DHT22;10147;16.402;102.848;2023-04-15T08:07:26;41.10;86.80
19972;DHT22;10147;16.402;102.848;2023-04-15T08:09:57;40.90;86.00
19972;DHT22;10147;16.402;102.848;2023-04-15T08:12:26;40.90;86.90
19972;DHT22;10147;16.402;102.848;2023-04-15T08:14:56;40.70;85.40
19972;DHT22;10147;16.402;102.848;2023-04-15T08:17:26;40.40;85.80
19972;DHT22;10147;16.402;102.848;2023-04-15T08:19:56;40.30;87.00
19972;DHT22;10147;16.402;102.848;2023-04-15T08:22:26;40.30;87.30
19972;DHT22;10147;16.402;102.848;2023-04-15T08:24:57;40.20;86.70
19972;DHT22;10147;16.402;102.848;2023-04-15T08:27:27;40.00;87.70
19972;DHT22;10147;16.402;102.848;2023-04-15T08:29:57;39.90;86.70
19972;DHT22;10147;16.402;102.848;2023-04-15T08:32:31;39.90;87.80
19972;DHT22;10147;16.402;102.848;2023-04-15T08:35:00;39.80;88.60
19972;DHT22;10147;16.402;102.848;2023-04-15T08:37:30;39.70;88.00
19972;DHT22;10147;16.402;102.848;2023-04-15T08:40:00;39.70;87.10
19972;DHT22;10147;16.402;102.848;2023-04-15T08:42:33;39.60;87.50
19972;DHT22;10147;16.402;102.848;2023-04-15T08:45:08;39.60;88.90
19972;DHT22;10147;16.402;102.848;2023-04-15T08:47:39;39.50;88.90
19972;DHT22;10147;16.402;102.848;2023-04-15T08:50:11;39.50;90.10
19972;DHT22;10147;16.402;102.848;2023-04-15T08:52:42;39.50;90.30
19972;DHT22;10147;16.402;102.848;2023-04-15T08:55:15;39.40;90.30
19972;DHT22;10147;16.402;102.848;2023-04-15T08:57:45;39.40;91.40
19972;DHT22;10147;16.402;102.848;2023-04-15T09:00:16;39.30;91.60
19972;DHT22;10147;16.402;102.848;2023-04-15T09:02:46;39.20;91.30
19972;DHT22;10147;16.402;102.848;2023-04-15T09:05:17;39.10;91.70
19972;DHT22;10147;16.402;102.848;2023-04-15T09:07:52;39.10;91.40
19972;DHT22;10147;16.402;102.848;2023-04-15T09:10:23;39.00;91.30
19972;DHT22;10147;16.402;102.848;2023-04-15T09:12:53;38.90;91.30
19972;DHT22;10147;16.402;102.848;2023-04-15T09:15:26;38.90;90.80
19972;DHT22;10147;16.402;102.848;2023-04-15T09:17:58;38.90;91.50
19972;DHT22;10147;16.402;102.848;2023-04-15T09:20:27;38.80;90.50
19972;DHT22;10147;16.402;102.848;2023-04-15T09:22:58;38.80;90.80
19972;DHT22;10147;16.402;102.848;2023-04-15T09:25:29;38.70;91.10
19972;DHT22;10147;16.402;102.848;2023-04-15T09:28:02;38.70;91.10
19972;DHT22;10147;16.402;102.848;2023-04-15T09:30:32;38.60;91.20
19972;DHT22;10147;16.402;102.848;2023-04-15T09:33:04;38.60;91.70
19972;DHT22;10147;16.402;102.848;2023-04-15T09:35:39;38.50;92.00
19972;DHT22;10147;16.402;102.848;2023-04-15T09:38:09;38.50;91.90
19972;DHT22;10147;16.402;102.848;2023-04-15T09:40:40;38.50;92.10
19972;DHT22;10147;16.402;102.848;2023-04-15T09:43:10;38.50;91.40
19972;DHT22;10147;16.402;102.848;2023-04-15T09:45:50;38.40;91.40
19972;DHT22;10147;16.402;102.848;2023-04-15T09:48:24;38.40;91.80
19972;DHT22;10147;16.402;102.848;2023-04-15T09:51:00;38.30;92.70
19972;DHT22;10147;16.402;102.848;2023-04-15T09:53:33;38.20;93.10
19972;DHT22;10147;16.402;102.848;2023-04-15T09:56:04;38.20;93.00
19972;DHT22;10147;16.402;102.848;2023-04-15T09:58:36;38.20;93.10
19972;DHT22;10147;16.402;102.848;2023-04-15T10:01:06;38.10;93.00
19972;DHT22;10147;16.402;102.848;2023-04-15T10:03:40;38.10;93.80
19972;DHT22;10147;16.402;102.848;2023-04-15T10:06:11;38.00;95.00
19972;DHT22;10147;16.402;102.848;2023-04-15T10:08:41;37.90;94.30
19972;DHT22;10147;16.402;102.848;2023-04-15T10:11:11;37.90;94.90
19972;DHT22;10147;16.402;102.848;2023-04-15T10:13:42;37.90;94.40
19972;DHT22;10147;16.402;102.848;2023-04-15T10:16:19;37.80;94.60
19972;DHT22;10147;16.402;102.848;2023-04-15T10:18:54;37.70;94.50
19972;DHT22;10147;16.402;102.848;2023-04-15T10:21:24;37.70;94.90
19972;DHT22;10147;16.402;102.848;2023-04-15T10:23:54;37.70;95.00
19972;DHT22;10147;16.402;102.848;2023-04-15T10:26:24;37.70;95.10
19972;DHT22;10147;16.402;102.848;2023-04-15T10:28:55;37.60;94.10
19972;DHT22;10147;16.402;102.848;2023-04-15T10:31:27;37.60;94.50
19972;DHT22;10147;16.402;102.848;2023-04-15T10:33:57;37.60;94.40
19972;DHT22;10147;16.402;102.848;2023-04-15T10:36:32;37.60;95.00
19972;DHT22;10147;16.402;102.848;2023-04-15T10:39:02;37.50;95.20
19972;DHT22;10147;16.402;102.848;2023-04-15T10:42:13;37.50;94.90
19972;DHT22;10147;16.402;102.848;2023-04-15T10:44:48;37.50;94.60
19972;DHT22;10147;16.402;102.848;2023-04-15T10:47:20;37.40;94.10
19972;DHT22;10147;16.402;102.848;2023-04-15T10:50:01;37.40;94.60
19972;DHT22;10147;16.402;102.848;2023-04-15T10:52:32;37.50;95.00
19972;DHT22;10147;16.402;102.848;2023-04-15T10:55:13;37.40;94.20
19972;DHT22;10147;16.402;102.848;2023-04-15T10:57:44;37.40;94.10
19972;DHT22;10147;16.402;102.848;2023-04-15T11:00:15;37.30;95.40
19972;DHT22;10147;16.402;102.848;2023-04-15T11:02:57;37.10;97.80
19972;DHT22;10147;16.402;102.848;2023-04-15T11:05:47;37.10;95.30
19972;DHT22;10147;16.402;102.848;2023-04-15T11:08:19;37.20;94.60
19972;DHT22;10147;16.402;102.848;2023-04-15T11:10:50;37.20;95.10
19972;DHT22;10147;16.402;102.848;2023-04-15T11:13:22;37.30;94.50
19972;DHT22;10147;16.402;102.848;2023-04-15T11:15:57;37.40;94.60
19972;DHT22;10147;16.402;102.848;2023-04-15T11:18:29;37.40;94.60
19972;DHT22;10147;16.402;102.848;2023-04-15T11:21:03;37.40;94.70
19972;DHT22;10147;16.402;102.848;2023-04-15T11:23:40;37.30;94.80
19972;DHT22;10147;16.402;102.848;2023-04-15T11:26:15;37.30;94.60
19972;DHT22;10147;16.402;102.848;2023-04-15T11:28:45;37.30;94.10
19972;DHT22;10147;16.402;102.848;2023-04-15T11:31:17;37.20;94.30
19972;DHT22;10147;16.402;102.848;2023-04-15T11:33:59;36.90;95.40
19972;DHT22;10147;16.402;102.848;2023-04-15T11:36:31;36.70;95.00
19972;DHT22;10147;16.402;102.848;2023-04-15T11:39:01;36.60;95.00
19972;DHT22;10147;16.402;102.848;2023-04-15T11:41:31;36.60;94.80
19972;DHT22;10147;16.402;102.848;2023-04-15T11:44:01;36.50;95.70
19972;DHT22;10147;16.402;102.848;2023-04-15T11:46:31;36.50;96.70
19972;DHT22;10147;16.402;102.848;2023-04-15T11:49:01;36.40;96.90
19972;DHT22;10147;16.402;102.848;2023-04-15T11:51:34;36.10;95.80
19972;DHT22;10147;16.402;102.848;2023-04-15T11:54:04;36.10;96.00
19972;DHT22;10147;16.402;102.848;2023-04-15T11:56:34;36.40;96.00
19972;DHT22;10147;16.402;102.848;2023-04-15T11:59:04;36.20;96.60
19972;DHT22;10147;16.402;102.848;2023-04-15T12:01:37;36.10;96.70
19972;DHT22;10147;16.402;102.848;2023-04-15T12:04:17;36.30;96.60
19972;DHT22;10147;16.402;102.848;2023-04-15T12:06:52;36.30;96.80
19972;DHT22;10147;16.402;102.848;2023-04-15T12:09:22;36.30;97.30
19972;DHT22;10147;16.402;102.848;2023-04-15T12:11:56;36.30;97.30
19972;DHT22;10147;16.402;102.848;2023-04-15T12:14:31;36.10;98.10
19972;DHT22;10147;16.402;102.848;2023-04-15T12:17:03;36.10;97.30
19972;DHT22;10147;16.402;102.848;2023-04-15T12:19:41;36.00;98.50
19972;DHT22;10147;16.402;102.848;2023-04-15T12:22:14;35.90;99.20
19972;DHT22;10147;16.402;102.848;2023-04-15T12:24:44;35.90;99.00
19972;DHT22;10147;16.402;102.848;2023-04-15T12:27:17;35.80;99.90
19972;DHT22;10147;16.402;102.848;2023-04-15T12:29:47;35.70;99.90
19972;DHT22;10147;16.402;102.848;2023-04-15T12:32:17;35.70;99.90
19972;DHT22;10147;16.402;102.848;2023-04-15T12:34:50;35.60;99.90
19972;DHT22;10147;16.402;102.848;2023-04-15T12:37:20;35.30;99.90
19972;DHT22;10147;16.402;102.848;2023-04-15T12:39:51;35.40;99.90
19972;DHT22;10147;16.402;102.848;2023-04-15T12:42:22;35.30;99.90
19972;DHT22;10147;16.402;102.848;2023-04-15T12:44:52;35.30;99.90
19972;DHT22;10147;16.402;102.848;2023-04-15T12:47:22;35.20;99.90
19972;DHT22;10147;16.402;102.848;2023-04-15T12:49:51;35.10;99.90
19972;DHT22;10147;16.402;102.848;2023-04-15T12:52:22;35.10;99.90
19972;DHT22;10147;16.402;102.848;2023-04-15T12:54:53;35.00;99.90
19972;DHT22;10147;16.402;102.848;2023-04-15T12:57:23;35.00;99.90
19972;DHT22;10147;16.402;102.848;2023-04-15T12:59:52;35.00;99.90
19972;DHT22;10147;16.402;102.848;2023-04-15T13:02:22;35.00;99.90
19972;DHT22;10147;16.402;102.848;2023-04-15T13:04:54;34.90;99.90
19972;DHT22;10147;16.402;102.848;2023-04-15T13:07:24;35.00;99.90
19972;DHT22;10147;16.402;102.848;2023-04-15T13:09:54;34.90;99.90
19972;DHT22;10147;16.402;102.848;2023-04-15T13:12:24;35.00;99.90
19972;DHT22;10147;16.402;102.848;2023-04-15T13:14:54;35.00;99.90
19972;DHT22;10147;16.402;102.848;2023-04-15T13:17:24;34.90;99.90
19972;DHT22;10147;16.402;102.848;2023-04-15T13:19:54;34.90;99.90
19972;DHT22;10147;16.402;102.848;2023-04-15T13:22:24;35.00;99.90
19972;DHT22;10147;16.402;102.848;2023-04-15T13:24:54;34.90;99.90
19972;DHT22;10147;16.402;102.848;2023-04-15T13:27:27;34.70;99.90
19972;DHT22;10147;16.402;102.848;2023-04-15T13:29:56;34.70;99.90
19972;DHT22;10147;16.402;102.848;2023-04-15T13:32:26;34.80;99.90
19972;DHT22;10147;16.402;102.848;2023-04-15T13:34:56;34.80;99.90
19972;DHT22;10147;16.402;102.848;2023-04-15T13:37:27;34.70;99.90
19972;DHT22;10147;16.402;102.848;2023-04-15T13:39:57;34.70;99.90
19972;DHT22;10147;16.402;102.848;2023-04-15T13:42:27;34.60;99.90
19972;DHT22;10147;16.402;102.848;2023-04-15T13:44:57;34.60;99.90
19972;DHT22;10147;16.402;102.848;2023-04-15T13:47:26;34.50;99.90
19972;DHT22;10147;16.402;102.848;2023-04-15T13:49:57;34.60;99.90
19972;DHT22;10147;16.402;102.848;2023-04-15T13:52:26;34.60;99.90
19972;DHT22;10147;16.402;102.848;2023-04-15T13:54:56;34.40;99.90
19972;DHT22;10147;16.402;102.848;2023-04-15T13:57:46;34.50;99.90
19972;DHT22;10147;16.402;102.848;2023-04-15T14:00:16;34.40;99.90
19972;DHT22;10147;16.402;102.848;2023-04-15T14:02:46;34.30;99.90
19972;DHT22;10147;16.402;102.848;2023-04-15T14:05:16;34.30;99.90
19972;DHT22;10147;16.402;102.848;2023-04-15T14:07:47;34.10;99.90
19972;DHT22;10147;16.402;102.848;2023-04-15T14:10:17;34.10;99.90
19972;DHT22;10147;16.402;102.848;2023-04-15T14:12:47;34.00;99.90
19972;DHT22;10147;16.402;102.848;2023-04-15T14:15:18;33.90;99.90
19972;DHT22;10147;16.402;102.848;2023-04-15T14:17:48;33.80;99.90
19972;DHT22;10147;16.402;102.848;2023-04-15T14:20:18;33.90;99.90
19972;DHT22;10147;16.402;102.848;2023-04-15T14:22:48;33.80;99.90
19972;DHT22;10147;16.402;102.848;2023-04-15T14:25:18;33.90;99.90
19972;DHT22;10147;16.402;102.848;2023-04-15T14:28:01;33.90;99.90
19972;DHT22;10147;16.402;102.848;2023-04-15T14:30:31;33.80;99.90
19972;DHT22;10147;16.402;102.848;2023-04-15T14:33:01;33.90;99.90
19972;DHT22;10147;16.402;102.848;2023-04-15T14:35:31;33.80;99.90
19972;DHT22;10147;16.402;102.848;2023-04-15T14:38:01;33.70;99.90
19972;DHT22;10147;16.402;102.848;2023-04-15T14:40:32;33.70;99.90
19972;DHT22;10147;16.402;102.848;2023-04-15T14:43:02;33.70;99.90
19972;DHT22;10147;16.402;102.848;2023-04-15T14:45:32;33.70;99.90
19972;DHT22;10147;16.402;102.848;2023-04-15T14:48:02;33.50;99.90
19972;DHT22;10147;16.402;102.848;2023-04-15T14:50:35;33.50;99.90
19972;DHT22;10147;16.402;102.848;2023-04-15T14:53:04;33.50;99.90
19972;DHT22;10147;16.402;102.848;2023-04-15T14:55:35;33.60;99.90
19972;DHT22;10147;16.402;102.848;2023-04-15T14:58:05;33.50;99.90
19972;DHT22;10147;16.402;102.848;2023-04-15T15:00:38;33.50;99.90
19972;DHT22;10147;16.402;102.848;2023-04-15T15:03:10;33.50;99.90
19972;DHT22;10147;16.402;102.848;2023-04-15T15:05:42;33.50;99.90
19972;DHT22;10147;16.402;102.848;2023-04-15T15:08:13;33.50;99.90
19972;DHT22;10147;16.402;102.848;2023-04-15T15:10:43;33.50;99.90
19972;DHT22;10147;16.402;102.848;2023-04-15T15:13:17;33.50;99.90
19972;DHT22;10147;16.402;102.848;2023-04-15T15:15:47;33.30;99.90
19972;DHT22;10147;16.402;102.848;2023-04-15T15:18:17;33.30;99.90
19972;DHT22;10147;16.402;102.848;2023-04-15T15:20:47;33.20;99.90
19972;DHT22;10147;16.402;102.848;2023-04-15T15:23:17;33.20;99.90
19972;DHT22;10147;16.402;102.848;2023-04-15T15:25:47;33.20;99.90